createdAt,value
2023-04-02T00:00:15.075Z,8.80
2023-04-02T00:04:18.944Z,8.80
2023-04-02T00:08:35.873Z,8.81
2023-04-02T00:12:37.213Z,8.79
2023-04-02T00:16:38.628Z,8.88
2023-04-02T00:20:42.855Z,8.81
2023-04-02T00:24:44.224Z,8.73
2023-04-02T00:28:45.549Z,8.68
2023-04-02T00:32:47.769Z,8.66
2023-04-02T00:36:50.746Z,8.60
2023-04-02T00:40:54.579Z,8.60
2023-04-02T00:44:56.070Z,8.52
2023-04-02T00:48:59.628Z,8.46
2023-04-02T00:53:05.224Z,8.48
2023-04-02T00:57:14.030Z,8.54
2023-04-02T01:01:16.312Z,8.46
2023-04-02T01:05:21.534Z,8.48
2023-04-02T01:09:33.280Z,8.34
2023-04-02T01:13:37.629Z,8.43
2023-04-02T01:17:46.504Z,8.50
2023-04-02T01:21:57.632Z,8.40
2023-04-02T01:26:03.905Z,8.40
2023-04-02T01:30:07.983Z,8.47
2023-04-02T01:34:11.995Z,8.47
2023-04-02T01:38:18.023Z,8.40
2023-04-02T01:42:21.653Z,8.40
2023-04-02T01:46:28.603Z,8.42
2023-04-02T01:50:31.132Z,8.32
2023-04-02T01:54:39.832Z,8.26
2023-04-02T01:58:41.211Z,8.37
2023-04-02T02:02:46.803Z,8.38
2023-04-02T02:06:48.504Z,8.30
2023-04-02T02:10:49.908Z,8.30
2023-04-02T02:14:51.791Z,8.34
2023-04-02T02:18:56.319Z,8.31
2023-04-02T02:22:58.091Z,8.37
2023-04-02T02:27:05.217Z,8.34
2023-04-02T02:31:07.994Z,8.40
2023-04-02T02:35:15.880Z,8.38
2023-04-02T02:39:22.358Z,8.31
2023-04-02T02:43:24.649Z,8.32
2023-04-02T02:47:28.445Z,8.33
2023-04-02T02:51:39.117Z,8.31
2023-04-02T02:55:40.508Z,8.28
2023-04-02T02:59:42.667Z,8.30
2023-04-02T03:03:44.909Z,8.28
2023-04-02T03:07:49.788Z,8.36
2023-04-02T03:11:54.471Z,8.37
2023-04-02T03:15:59.245Z,8.33
2023-04-02T03:20:03.556Z,8.33
2023-04-02T03:24:11.740Z,8.28
2023-04-02T03:28:14.229Z,8.35
2023-04-02T03:32:17.250Z,8.37
2023-04-02T03:36:21.450Z,8.36
2023-04-02T03:40:26.092Z,8.37
2023-04-02T03:44:28.951Z,8.39
2023-04-02T03:48:33.809Z,8.39
2023-04-02T03:52:36.228Z,8.25
2023-04-02T03:56:39.223Z,8.29
2023-04-02T04:00:44.614Z,8.20
2023-04-02T04:04:48.188Z,8.19
2023-04-02T04:08:51.263Z,8.11
2023-04-02T04:12:55.616Z,8.18
2023-04-02T04:17:01.222Z,8.09
2023-04-02T04:21:03.959Z,8.25
2023-04-02T04:25:06.743Z,8.26
2023-04-02T04:29:15.296Z,8.30
2023-04-02T04:33:19.028Z,8.29
2023-04-02T04:37:23.954Z,8.23
2023-04-02T04:41:28.147Z,8.14
2023-04-02T04:45:36.376Z,8.08
2023-04-02T04:49:41.724Z,8.06
2023-04-02T04:53:46.467Z,8.01
2023-04-02T04:57:48.625Z,8.10
2023-04-02T05:01:54.041Z,8.04
2023-04-02T05:06:00.710Z,8.05
2023-04-02T05:10:06.462Z,8.07
2023-04-02T05:14:12.760Z,8.06
2023-04-02T05:18:20.114Z,8.05
2023-04-02T05:22:25.675Z,8.08
2023-04-02T05:26:30.888Z,8.11
2023-04-02T05:30:41.627Z,8.22
2023-04-02T05:34:46.941Z,8.21
2023-04-02T05:38:50.039Z,8.33
2023-04-02T05:42:52.085Z,8.28
2023-04-02T05:46:56.348Z,8.34
2023-04-02T05:51:00.142Z,8.28
2023-04-02T05:55:03.944Z,8.37
2023-04-02T05:59:07.313Z,8.43
2023-04-02T06:03:16.059Z,8.48
2023-04-02T06:07:21.724Z,8.54
2023-04-02T06:11:25.260Z,8.59
2023-04-02T06:15:26.610Z,8.54
2023-04-02T06:19:31.036Z,8.71
2023-04-02T06:23:37.076Z,8.74
2023-04-02T06:27:40.034Z,8.82
2023-04-02T06:31:44.653Z,8.84
2023-04-02T06:35:46.470Z,8.88
2023-04-02T06:39:49.362Z,8.88
2023-04-02T06:43:52.872Z,8.95
2023-04-02T06:47:55.575Z,8.96
2023-04-02T06:51:58.548Z,9.12
2023-04-02T06:56:03.859Z,9.04
2023-04-02T07:00:05.890Z,9.20
2023-04-02T07:04:08.491Z,9.24
2023-04-02T07:08:09.838Z,9.27
2023-04-02T07:12:13.127Z,9.23
2023-04-02T07:16:15.208Z,9.22
2023-04-02T07:20:25.066Z,9.11
2023-04-02T07:24:26.426Z,9.10
2023-04-02T07:28:29.511Z,9.30
2023-04-02T07:32:30.975Z,9.48
2023-04-02T07:36:32.412Z,9.28
2023-04-02T07:40:33.979Z,9.37
2023-04-02T07:44:36.672Z,9.38
2023-04-02T07:48:38.052Z,9.40
2023-04-02T07:52:40.541Z,9.33
2023-04-02T07:56:42.099Z,9.24
2023-04-02T08:00:44.808Z,9.33
2023-04-02T08:04:46.172Z,9.40
2023-04-02T08:08:47.560Z,9.56
2023-04-02T08:12:48.907Z,9.50
2023-04-02T08:16:52.455Z,9.64
2023-04-02T08:20:53.891Z,9.71
2023-04-02T08:24:55.299Z,9.90
2023-04-02T08:28:56.656Z,9.88
2023-04-02T08:32:59.798Z,9.89
2023-04-02T08:37:01.215Z,10.17
2023-04-02T08:41:04.496Z,10.43
2023-04-02T08:45:24.967Z,10.50
2023-04-02T08:49:30.877Z,10.52
2023-04-02T08:53:33.830Z,10.74
2023-04-02T08:57:38.995Z,10.83
2023-04-02T09:01:45.689Z,10.81
2023-04-02T09:05:50.274Z,10.79
2023-04-02T09:09:51.673Z,10.93
2023-04-02T09:13:55.233Z,10.94
2023-04-02T09:18:00.329Z,11.10
2023-04-02T09:22:08.267Z,10.85
2023-04-02T09:26:19.220Z,10.82
2023-04-02T09:30:26.328Z,10.83
2023-04-02T09:34:28.519Z,10.56
2023-04-02T09:38:31.280Z,9.98
2023-04-02T09:42:33.700Z,9.77
2023-04-02T09:46:35.083Z,9.97
2023-04-02T09:50:36.793Z,10.08
2023-04-02T09:54:39.528Z,10.32
2023-04-02T09:58:41.499Z,10.45
2023-04-02T10:02:43.683Z,10.40
2023-04-02T10:06:48.895Z,10.39
2023-04-02T10:10:54.045Z,10.39
2023-04-02T10:14:56.743Z,10.32
2023-04-02T10:19:00.238Z,10.18
2023-04-02T10:23:01.610Z,9.98
2023-04-02T10:27:14.358Z,9.96
2023-04-02T10:31:18.890Z,9.86
2023-04-02T10:35:24.230Z,10.04
2023-04-02T10:39:28.077Z,10.33
2023-04-02T10:43:44.305Z,10.38
2023-04-02T10:47:54.049Z,10.41
2023-04-02T10:51:58.399Z,10.48
2023-04-02T10:56:01.766Z,10.47
2023-04-02T11:00:07.852Z,10.75
2023-04-02T11:04:16.477Z,10.84
2023-04-02T11:08:20.031Z,11.07
2023-04-02T11:12:23.353Z,11.24
2023-04-02T11:16:25.023Z,11.51
2023-04-02T11:20:51.970Z,11.18
2023-04-02T11:24:54.491Z,11.18
2023-04-02T11:29:01.772Z,11.08
2023-04-02T11:33:35.880Z,10.85
2023-04-02T11:37:40.776Z,10.69
2023-04-02T11:42:01.808Z,10.20
2023-04-02T11:46:04.662Z,10.37
2023-04-02T11:50:06.664Z,10.46
2023-04-02T11:54:23.427Z,10.64
2023-04-02T11:58:40.907Z,11.07
2023-04-02T12:02:48.768Z,11.08
2023-04-02T12:06:59.805Z,10.56
2023-04-02T12:11:03.203Z,10.58
2023-04-02T12:15:06.540Z,10.34
2023-04-02T12:19:08.566Z,9.99
2023-04-02T12:23:16.533Z,9.99
2023-04-02T12:27:20.558Z,10.10
2023-04-02T12:31:23.822Z,9.57
2023-04-02T12:35:28.019Z,10.07
2023-04-02T12:39:29.576Z,10.21
2023-04-02T12:43:32.972Z,10.07
2023-04-02T12:47:34.370Z,10.00
2023-04-02T12:51:36.482Z,9.79
2023-04-02T12:55:37.888Z,9.36
2023-04-02T12:59:41.806Z,9.46
2023-04-02T13:03:43.240Z,9.62
2023-04-02T13:07:47.210Z,9.79
2023-04-02T13:11:48.569Z,9.65
2023-04-02T13:16:01.253Z,9.30
2023-04-02T13:20:17.516Z,9.10
2023-04-02T13:24:19.712Z,9.46
2023-04-02T13:28:21.170Z,9.51
2023-04-02T13:32:25.006Z,8.87
2023-04-02T13:36:26.441Z,8.90
2023-04-02T13:40:27.880Z,8.76
2023-04-02T13:44:29.843Z,8.55
2023-04-02T13:48:32.567Z,8.17
2023-04-02T13:52:33.949Z,7.96
2023-04-02T13:56:35.384Z,7.93
2023-04-02T14:00:37.102Z,8.08
2023-04-02T14:04:42.222Z,7.89
2023-04-02T14:08:52.503Z,7.82
2023-04-02T14:13:01.112Z,7.49
2023-04-02T14:17:07.894Z,7.63
2023-04-02T14:21:16.909Z,7.53
2023-04-02T14:25:22.542Z,7.77
2023-04-02T14:29:29.248Z,7.95
2023-04-02T14:33:34.623Z,8.25
2023-04-02T14:37:41.327Z,8.45
2023-04-02T14:41:45.186Z,8.10
2023-04-02T14:45:56.617Z,8.24
2023-04-02T14:50:02.725Z,8.38
2023-04-02T14:54:09.534Z,8.31
2023-04-02T14:58:20.108Z,8.40
2023-04-02T15:02:23.938Z,8.30
2023-04-02T15:06:27.220Z,8.34
2023-04-02T15:10:31.999Z,8.43
2023-04-02T15:14:35.077Z,8.34
2023-04-02T15:18:36.434Z,8.35
2023-04-02T15:22:38.876Z,8.41
2023-04-02T15:26:45.396Z,7.92
2023-04-02T15:30:50.198Z,8.08
2023-04-02T15:34:57.648Z,8.04
2023-04-02T15:39:01.847Z,7.82
2023-04-02T15:43:11.183Z,7.74
2023-04-02T15:47:18.736Z,7.31
2023-04-02T15:51:25.375Z,7.33
2023-04-02T15:55:32.751Z,7.23
2023-04-02T15:59:48.984Z,7.08
2023-04-02T16:03:59.717Z,7.11
2023-04-02T16:08:08.592Z,6.99
2023-04-02T16:12:12.122Z,7.21
2023-04-02T16:16:15.219Z,7.19
2023-04-02T16:20:20.680Z,7.14
2023-04-02T16:24:22.075Z,7.17
2023-04-02T16:28:24.308Z,6.92
2023-04-02T16:32:40.723Z,6.89
2023-04-02T16:36:48.924Z,6.95
2023-04-02T16:41:07.003Z,6.93
2023-04-02T16:45:19.294Z,6.73
2023-04-02T16:49:26.449Z,6.59
2023-04-02T16:53:34.112Z,6.50
2023-04-02T16:57:37.647Z,6.30
2023-04-02T17:01:44.520Z,6.20
2023-04-02T17:05:52.887Z,6.06
2023-04-02T17:09:59.969Z,6.00
2023-04-02T17:14:03.410Z,5.88
2023-04-02T17:18:09.827Z,5.64
2023-04-02T17:22:14.624Z,5.59
2023-04-02T17:26:19.521Z,5.47
2023-04-02T17:30:23.691Z,5.13
2023-04-02T17:34:25.044Z,5.04
2023-04-02T17:38:32.625Z,5.01
2023-04-02T17:42:43.901Z,4.99
2023-04-02T17:46:48.659Z,5.00
2023-04-02T17:50:54.362Z,4.72
2023-04-02T17:55:01.763Z,4.61
2023-04-02T17:59:23.353Z,4.64
2023-04-02T18:03:35.503Z,4.59
2023-04-02T18:07:40.980Z,4.64
2023-04-02T18:11:45.974Z,4.68
2023-04-02T18:16:02.276Z,4.70
2023-04-02T18:20:09.513Z,4.67
2023-04-02T18:24:20.484Z,4.59
2023-04-02T18:28:32.367Z,4.54
2023-04-02T18:32:40.885Z,4.54
2023-04-02T18:36:52.392Z,4.47
2023-04-02T18:41:01.351Z,4.48
2023-04-02T18:45:10.514Z,4.44
2023-04-02T18:49:19.979Z,4.56
2023-04-02T18:53:23.350Z,4.53
2023-04-02T18:57:27.057Z,4.49
2023-04-02T19:01:33.079Z,4.42
2023-04-02T19:05:39.308Z,4.43
2023-04-02T19:09:44.142Z,4.35
2023-04-02T19:13:45.607Z,4.27
2023-04-02T19:17:49.127Z,4.27
2023-04-02T19:22:03.831Z,4.28
2023-04-02T19:26:08.426Z,4.29
2023-04-02T19:30:20.060Z,4.30
2023-04-02T19:34:26.305Z,4.36
2023-04-02T19:38:40.909Z,4.43
2023-04-02T19:42:45.945Z,4.42
2023-04-02T19:46:47.676Z,4.43
2023-04-02T19:50:49.221Z,4.46
2023-04-02T19:54:50.579Z,4.47
2023-04-02T19:58:53.359Z,4.48
2023-04-02T20:02:54.750Z,4.38
2023-04-02T20:06:56.124Z,4.46
2023-04-02T20:10:57.981Z,4.35
2023-04-02T20:15:00.702Z,4.42
2023-04-02T20:19:02.080Z,4.28
2023-04-02T20:23:03.444Z,4.37
2023-04-02T20:27:04.787Z,4.36
2023-04-02T20:31:09.145Z,4.35
2023-04-02T20:35:10.666Z,4.23
2023-04-02T20:39:12.098Z,4.38
2023-04-02T20:43:13.440Z,4.38
2023-04-02T20:47:16.153Z,4.19
2023-04-02T20:51:17.674Z,4.13
2023-04-02T20:55:19.118Z,4.09
2023-04-02T20:59:20.521Z,4.02
2023-04-02T21:03:23.217Z,4.11
2023-04-02T21:07:24.677Z,4.15
2023-04-02T21:11:26.027Z,4.14
2023-04-02T21:15:27.375Z,4.08
2023-04-02T21:19:30.094Z,4.06
2023-04-02T21:23:31.990Z,4.00
2023-04-02T21:27:33.357Z,3.90
2023-04-02T21:31:35.493Z,3.91
2023-04-02T21:35:38.420Z,3.95
2023-04-02T21:39:39.895Z,3.98
2023-04-02T21:43:41.540Z,4.11
2023-04-02T21:47:43.152Z,4.05
2023-04-02T21:51:46.591Z,3.99
2023-04-02T21:55:47.941Z,3.95
2023-04-02T21:59:49.292Z,4.04
2023-04-02T22:03:50.776Z,3.97
2023-04-02T22:07:53.793Z,3.95
2023-04-02T22:11:55.816Z,4.03
2023-04-02T22:15:59.795Z,3.90
2023-04-02T22:20:01.162Z,3.95
2023-04-02T22:24:04.983Z,3.93
2023-04-02T22:28:06.317Z,4.15
2023-04-02T22:32:07.694Z,4.05
2023-04-02T22:36:09.180Z,3.94
2023-04-02T22:40:12.350Z,3.98
2023-04-02T22:44:14.278Z,4.11
2023-04-02T22:48:15.651Z,4.12
2023-04-02T22:52:17.005Z,3.87
2023-04-02T22:56:20.699Z,3.86
2023-04-02T23:00:22.536Z,3.87
2023-04-02T23:04:23.865Z,3.86
2023-04-02T23:08:25.363Z,3.95
2023-04-02T23:12:28.096Z,3.88
2023-04-02T23:16:29.602Z,3.86
2023-04-02T23:20:31.017Z,3.66
2023-04-02T23:24:32.358Z,3.67
2023-04-02T23:28:35.986Z,3.63
2023-04-02T23:32:37.420Z,3.57
2023-04-02T23:36:38.800Z,3.68
2023-04-02T23:40:40.187Z,3.60
2023-04-02T23:44:42.885Z,3.58
2023-04-02T23:48:44.248Z,3.75
2023-04-02T23:52:45.606Z,3.66
2023-04-02T23:56:46.988Z,3.76
